Time;durP1;ratioP1;P1;durP2;ratioP2;P2;SDS_P1;SDS_P2;PMS_P1;PMS_P2;Temp;Humidity;BMP_temperature;BMP_pressure;BME280_temperature;BME280_humidity;BME280_pressure;Samples;Min_cycle;Max_cycle;Signal;HPM_P1;HPM_P2
2021/12/06 00:01:59;;;;;;;12.95;8.35;;;;;;;;;;4991545;28;20027;-84
2021/12/06 00:04:29;;;;;;;14.15;8.55;;;;;;;;;;4991669;28;20031;-85
2021/12/06 00:06:59;;;;;;;13.43;8.05;;;;;;;;;;4991544;28;20030;-84
2021/12/06 00:09:27;;;;;;;12.57;8.23;;;;;;;;;;4990322;28;20042;-85
2021/12/06 00:11:57;;;;;;;14.52;8.63;;;;;;;;;;4991454;28;20034;-84
2021/12/06 00:14:28;;;;;;;13.52;7.65;;;;;;;;;;4991950;28;20039;-84
2021/12/06 00:16:59;;;;;;;13.90;8.40;;;;;;;;;;4991971;28;20042;-85
2021/12/06 00:19:26;;;;;;;14.98;8.20;;;;;;;;;;4991484;28;20053;-85
2021/12/06 00:21:53;;;;;;;13.35;7.72;;;;;;;;;;4990583;28;20034;-85
2021/12/06 00:24:19;;;;;;;17.23;8.75;;;;;;;;;;4991587;28;20046;-84
2021/12/06 00:26:45;;;;;;;12.40;7.97;;;;;;;;;;4974031;28;20065;-84
2021/12/06 00:29:11;;;;;;;14.88;8.63;;;;;;;;;;4991623;28;20042;-84
2021/12/06 00:31:37;;;;;;;15.73;7.97;;;;;;;;;;4991624;28;20405;-85
2021/12/06 00:34:09;;;;;;;14.30;8.30;;;;;;;;;;4991590;28;20507;-86
2021/12/06 00:36:38;;;;;;;12.73;8.13;;;;;;;;;;4990840;28;20026;-84
2021/12/06 00:39:07;;;;;;;17.15;8.73;;;;;;;;;;4991686;28;20047;-85
2021/12/06 00:41:33;;;;;;;12.80;7.72;;;;;;;;;;4991739;28;20069;-85
2021/12/06 00:44:00;;;;;;;13.38;8.63;;;;;;;;;;4990369;28;20038;-84
2021/12/06 00:46:26;;;;;;;15.68;8.30;;;;;;;;;;4992456;28;20050;-85
2021/12/06 00:48:52;;;;;;;14.05;8.30;;;;;;;;;;4993495;28;20388;-84
2021/12/06 00:51:19;;;;;;;15.35;8.02;;;;;;;;;;4991190;28;20048;-84
2021/12/06 00:53:45;;;;;;;12.80;7.85;;;;;;;;;;4991201;28;20039;-84
2021/12/06 00:56:12;;;;;;;13.63;7.97;;;;;;;;;;4991637;28;20050;-85
2021/12/06 00:58:39;;;;;;;13.30;7.88;;;;;;;;;;4991502;28;20041;-84
2021/12/06 01:01:06;;;;;;;13.50;7.78;;;;;;;;;;4991142;28;20034;-84
2021/12/06 01:03:34;;;;;;;14.90;8.02;;;;;;;;;;4991024;28;20390;-84
2021/12/06 01:06:00;;;;;;;14.45;7.90;;;;;;;;;;4992899;28;20042;-84
2021/12/06 01:08:26;;;;;;;14.80;8.52;;;;;;;;;;4995269;28;20503;-85
2021/12/06 01:10:53;;;;;;;15.40;8.15;;;;;;;;;;4995161;28;20038;-85
2021/12/06 01:13:20;;;;;;;12.07;7.80;;;;;;;;;;4995159;28;20035;-84
2021/12/06 01:15:46;;;;;;;14.45;8.88;;;;;;;;;;4993776;28;20046;-84
2021/12/06 01:18:16;;;;;;;13.60;8.77;;;;;;;;;;4994891;28;20026;-85
2021/12/06 01:20:58;;;;;;;11.60;8.35;;;;;;;;;;4994842;28;20396;-85
2021/12/06 01:23:29;;;;;;;14.60;9.02;;;;;;;;;;4994702;28;20069;-83
2021/12/06 01:28:36;;;;;;;15.70;9.95;;;;;;;;;;4996153;28;20473;-85
2021/12/06 01:39:18;;;;;;;12.93;7.90;;;;;;;;;;4994453;28;20620;-84
2021/12/06 01:41:53;;;;;;;15.52;8.90;;;;;;;;;;4994161;28;20038;-85
2021/12/06 01:44:29;;;;;;;16.15;8.60;;;;;;;;;;4994231;28;20396;-84
2021/12/06 01:46:56;;;;;;;16.58;8.73;;;;;;;;;;4994187;28;20046;-84
2021/12/06 01:49:25;;;;;;;13.10;7.72;;;;;;;;;;4994071;28;20054;-84
2021/12/06 01:51:55;;;;;;;13.23;7.30;;;;;;;;;;4994030;28;20046;-83
2021/12/06 01:54:21;;;;;;;16.13;8.00;;;;;;;;;;4993294;28;20468;-84
2021/12/06 01:56:48;;;;;;;14.70;7.68;;;;;;;;;;4994023;28;20042;-83
2021/12/06 01:59:14;;;;;;;15.23;7.97;;;;;;;;;;4993053;28;20026;-84
2021/12/06 02:01:41;;;;;;;12.63;8.00;;;;;;;;;;4993134;28;20469;-84
2021/12/06 02:04:08;;;;;;;13.77;7.90;;;;;;;;;;4993154;28;20424;-84
2021/12/06 02:06:35;;;;;;;12.85;7.75;;;;;;;;;;4993076;28;20057;-86
2021/12/06 02:09:03;;;;;;;16.83;8.52;;;;;;;;;;4992964;28;20048;-87
2021/12/06 02:11:32;;;;;;;13.23;8.10;;;;;;;;;;4992967;28;20034;-84
2021/12/06 02:14:17;;;;;;;16.70;8.45;;;;;;;;;;4993362;28;20039;-84
2021/12/06 02:17:01;;;;;;;13.23;8.55;;;;;;;;;;4992831;28;20050;-85
2021/12/06 02:19:32;;;;;;;17.27;8.35;;;;;;;;;;4993453;28;20369;-85
2021/12/06 02:22:00;;;;;;;13.15;7.53;;;;;;;;;;4991753;28;20062;-85
2021/12/06 02:24:28;;;;;;;11.85;7.63;;;;;;;;;;4992896;28;20065;-86
2021/12/06 02:26:53;;;;;;;15.93;8.02;;;;;;;;;;4991523;28;20539;-84
2021/12/06 02:29:20;;;;;;;14.02;8.88;;;;;;;;;;4991341;28;20069;-85
2021/12/06 02:31:46;;;;;;;16.27;8.63;;;;;;;;;;4993129;28;20038;-85
2021/12/06 02:34:13;;;;;;;15.00;7.93;;;;;;;;;;4992030;28;20042;-84
2021/12/06 02:36:39;;;;;;;15.45;8.70;;;;;;;;;;4992675;28;20034;-85
2021/12/06 02:39:09;;;;;;;12.93;7.88;;;;;;;;;;4993465;28;20034;-84
2021/12/06 02:41:35;;;;;;;18.17;8.77;;;;;;;;;;4991188;28;20046;-84
2021/12/06 02:44:01;;;;;;;19.98;9.73;;;;;;;;;;4991390;28;20053;-85
2021/12/06 02:46:27;;;;;;;15.23;9.50;;;;;;;;;;4992452;28;20030;-85
2021/12/06 02:48:53;;;;;;;16.13;9.05;;;;;;;;;;4992544;28;20055;-86
2021/12/06 02:51:20;;;;;;;14.10;8.98;;;;;;;;;;4992456;28;20026;-85
2021/12/06 02:53:47;;;;;;;17.42;9.52;;;;;;;;;;4992191;28;20495;-85
2021/12/06 02:56:30;;;;;;;17.00;9.73;;;;;;;;;;4992291;28;20499;-85
2021/12/06 02:59:00;;;;;;;16.88;8.98;;;;;;;;;;4992247;28;20567;-85
2021/12/06 03:01:37;;;;;;;14.73;9.10;;;;;;;;;;4992904;28;20043;-85
2021/12/06 03:04:04;;;;;;;17.80;8.80;;;;;;;;;;4992371;28;20145;-86
2021/12/06 03:06:30;;;;;;;16.80;9.68;;;;;;;;;;4992410;28;20530;-85
2021/12/06 03:09:08;;;;;;;15.55;9.52;;;;;;;;;;4992194;28;20041;-85
2021/12/06 03:11:44;;;;;;;17.10;9.95;;;;;;;;;;4992118;28;20531;-85
2021/12/06 03:14:13;;;;;;;18.88;9.65;;;;;;;;;;4990620;28;20038;-85
2021/12/06 03:16:39;;;;;;;21.95;10.60;;;;;;;;;;4991899;28;20046;-85
2021/12/06 03:19:06;;;;;;;19.58;10.63;;;;;;;;;;4992069;28;20042;-85
2021/12/06 03:21:33;;;;;;;19.60;10.43;;;;;;;;;;4992398;28;20046;-85
2021/12/06 03:24:00;;;;;;;19.85;10.43;;;;;;;;;;4992189;28;20057;-84
2021/12/06 03:26:28;;;;;;;18.98;10.80;;;;;;;;;;4990560;28;20473;-84
2021/12/06 03:28:55;;;;;;;23.92;12.05;;;;;;;;;;4991217;28;20424;-84
2021/12/06 03:31:26;;;;;;;16.67;9.82;;;;;;;;;;4992058;28;20042;-84
2021/12/06 03:33:55;;;;;;;18.50;10.32;;;;;;;;;;4992035;28;20380;-84
2021/12/06 03:36:23;;;;;;;17.98;10.20;;;;;;;;;;4992394;28;20049;-84
2021/12/06 03:38:52;;;;;;;18.42;10.35;;;;;;;;;;4991956;28;20039;-85
2021/12/06 03:41:19;;;;;;;19.67;11.07;;;;;;;;;;4991919;28;20039;-84
2021/12/06 03:43:46;;;;;;;17.17;9.90;;;;;;;;;;4989815;28;20499;-85
2021/12/06 03:46:13;;;;;;;18.05;10.85;;;;;;;;;;4991588;28;20053;-85
2021/12/06 03:48:39;;;;;;;18.33;10.32;;;;;;;;;;4991931;28;20046;-86
2021/12/06 03:51:06;;;;;;;20.67;11.27;;;;;;;;;;4991434;28;20527;-85
2021/12/06 03:53:32;;;;;;;20.92;11.57;;;;;;;;;;4992104;28;20484;-85
2021/12/06 03:55:58;;;;;;;21.85;12.40;;;;;;;;;;4992093;28;20499;-84
2021/12/06 03:58:25;;;;;;;17.17;10.27;;;;;;;;;;4993389;28;20038;-85
2021/12/06 04:00:51;;;;;;;16.48;10.05;;;;;;;;;;4994059;28;20042;-84
2021/12/06 04:03:19;;;;;;;15.43;9.52;;;;;;;;;;4992114;28;20041;-85
2021/12/06 04:05:46;;;;;;;19.92;10.32;;;;;;;;;;4993280;28;20503;-85
2021/12/06 04:08:11;;;;;;;18.52;10.65;;;;;;;;;;4990971;28;20042;-85
2021/12/06 04:10:37;;;;;;;17.75;10.93;;;;;;;;;;4991519;28;20114;-85
2021/12/06 04:13:03;;;;;;;17.65;11.57;;;;;;;;;;4991383;28;20027;-85
2021/12/06 04:15:30;;;;;;;19.70;11.25;;;;;;;;;;4993338;28;20030;-84
2021/12/06 04:17:58;;;;;;;19.80;11.35;;;;;;;;;;4994686;28;20042;-84
2021/12/06 04:20:24;;;;;;;24.70;12.70;;;;;;;;;;4994667;28;20037;-84
2021/12/06 04:22:51;;;;;;;23.75;11.82;;;;;;;;;;4995517;28;20033;-84
2021/12/06 04:25:18;;;;;;;23.25;11.57;;;;;;;;;;5004624;28;20038;-85
2021/12/06 04:27:51;;;;;;;21.60;12.20;;;;;;;;;;5014081;28;20050;-84
2021/12/06 04:30:17;;;;;;;19.92;10.82;;;;;;;;;;5014314;28;20061;-84
2021/12/06 04:32:43;;;;;;;20.00;10.95;;;;;;;;;;5014263;28;20046;-85
2021/12/06 04:35:09;;;;;;;18.15;10.27;;;;;;;;;;5007407;28;20129;-84
2021/12/06 04:37:35;;;;;;;19.35;11.05;;;;;;;;;;4991325;28;20030;-84
2021/12/06 04:40:03;;;;;;;19.50;10.85;;;;;;;;;;4992962;28;20463;-84
2021/12/06 04:42:29;;;;;;;22.25;11.48;;;;;;;;;;4995090;28;20032;-84
2021/12/06 04:44:55;;;;;;;17.33;11.13;;;;;;;;;;4995357;28;20049;-84
2021/12/06 04:47:22;;;;;;;17.73;10.45;;;;;;;;;;4994495;28;20045;-84
2021/12/06 04:49:48;;;;;;;19.90;12.35;;;;;;;;;;4995733;28;20079;-85
2021/12/06 04:52:17;;;;;;;21.83;11.32;;;;;;;;;;4995258;28;20124;-84
2021/12/06 04:54:49;;;;;;;19.35;11.13;;;;;;;;;;4994741;28;20042;-85
2021/12/06 04:57:24;;;;;;;22.67;11.00;;;;;;;;;;4995019;28;20488;-85
2021/12/06 05:00:19;;;;;;;20.60;11.10;;;;;;;;;;4994852;28;20491;-84
2021/12/06 05:02:46;;;;;;;17.08;10.18;;;;;;;;;;4974251;28;20046;-84
2021/12/06 05:05:37;;;;;;;17.73;10.20;;;;;;;;;;4994657;28;20080;-84
2021/12/06 05:08:09;;;;;;;;;;;;;;;;;;4994846;28;20053;-84
2021/12/06 05:10:35;;;;;;;19.58;10.98;;;;;;;;;;4995022;28;19921;-85
2021/12/06 05:13:01;;;;;;;21.25;11.40;;;;;;;;;;4993562;28;20047;-84
2021/12/06 05:15:27;;;;;;;19.80;11.93;;;;;;;;;;4993845;28;20034;-84
2021/12/06 05:17:52;;;;;;;19.85;11.65;;;;;;;;;;4994426;28;20064;-83
2021/12/06 05:20:19;;;;;;;20.23;11.75;;;;;;;;;;4994541;28;20058;-84
2021/12/06 05:22:45;;;;;;;22.17;11.38;;;;;;;;;;4995797;28;20042;-83
2021/12/06 05:25:11;;;;;;;21.63;11.90;;;;;;;;;;4994487;28;20038;-86
2021/12/06 05:27:47;;;;;;;21.98;12.05;;;;;;;;;;4995533;28;20057;-87
2021/12/06 05:30:15;;;;;;;22.13;12.93;;;;;;;;;;4993607;28;20037;-84
2021/12/06 05:32:42;;;;;;;26.42;13.15;;;;;;;;;;4994286;28;20042;-85
2021/12/06 05:35:10;;;;;;;21.85;12.85;;;;;;;;;;4978635;28;20026;-85
2021/12/06 05:37:42;;;;;;;25.27;13.27;;;;;;;;;;4994166;28;20412;-85
2021/12/06 05:40:12;;;;;;;25.55;14.00;;;;;;;;;;4992852;28;20488;-84
2021/12/06 05:42:39;;;;;;;25.58;15.00;;;;;;;;;;4993329;28;20042;-86
2021/12/06 05:45:06;;;;;;;23.98;13.88;;;;;;;;;;4992945;28;20038;-82
2021/12/06 05:47:32;;;;;;;26.90;13.60;;;;;;;;;;4993214;28;20385;-82
2021/12/06 05:49:58;;;;;;;25.35;13.93;;;;;;;;;;4993265;28;20124;-81
2021/12/06 05:52:24;;;;;;;25.95;14.63;;;;;;;;;;4991305;28;20034;-81
2021/12/06 05:54:50;;;;;;;26.42;14.02;;;;;;;;;;4991080;28;20034;-80
2021/12/06 05:57:16;;;;;;;26.35;15.35;;;;;;;;;;4993063;28;20515;-81
2021/12/06 05:59:43;;;;;;;25.75;14.73;;;;;;;;;;4992590;28;20046;-85
2021/12/06 06:02:10;;;;;;;23.92;14.70;;;;;;;;;;4994077;28;20511;-78
2021/12/06 06:04:36;;;;;;;24.08;14.25;;;;;;;;;;4976708;28;20042;-70
2021/12/06 06:07:03;;;;;;;22.30;14.30;;;;;;;;;;4992281;28;20026;-77
2021/12/06 06:09:28;;;;;;;23.92;14.82;;;;;;;;;;4987769;28;20506;-77
2021/12/06 06:11:54;;;;;;;23.33;13.32;;;;;;;;;;4991997;28;20065;-79
2021/12/06 06:14:20;;;;;;;24.92;13.20;;;;;;;;;;4992208;28;20381;-75
2021/12/06 06:16:52;;;;;;;23.67;13.63;;;;;;;;;;4991591;28;20048;-76
2021/12/06 06:19:22;;;;;;;26.58;15.02;;;;;;;;;;4986047;28;20404;-82
2021/12/06 06:21:49;;;;;;;27.03;15.37;;;;;;;;;;4990889;28;20050;-82
2021/12/06 06:24:15;;;;;;;27.50;13.65;;;;;;;;;;4992401;28;20109;-79
2021/12/06 06:26:40;;;;;;;28.98;14.15;;;;;;;;;;4991317;28;20499;-79
2021/12/06 06:29:07;;;;;;;24.90;12.93;;;;;;;;;;4992246;28;20054;-79
2021/12/06 06:31:33;;;;;;;22.40;13.13;;;;;;;;;;4982834;28;20041;-80
2021/12/06 06:33:59;;;;;;;25.40;13.85;;;;;;;;;;4981483;28;20034;-77
2021/12/06 06:36:26;;;;;;;22.35;13.73;;;;;;;;;;4990143;28;20038;-77
2021/12/06 06:38:52;;;;;;;28.80;13.52;;;;;;;;;;4992351;28;20054;-78
2021/12/06 06:41:17;;;;;;;23.63;12.50;;;;;;;;;;4992070;28;20420;-79
2021/12/06 06:43:43;;;;;;;25.60;13.70;;;;;;;;;;4980936;28;20037;-80
2021/12/06 06:46:09;;;;;;;29.95;13.98;;;;;;;;;;4986323;28;20038;-77
2021/12/06 06:48:35;;;;;;;26.52;13.93;;;;;;;;;;4989649;28;20058;-77
2021/12/06 06:51:01;;;;;;;23.15;13.23;;;;;;;;;;4984904;28;20033;-75
2021/12/06 06:53:28;;;;;;;23.80;13.32;;;;;;;;;;4986988;28;20046;-75
2021/12/06 06:55:54;;;;;;;23.20;12.70;;;;;;;;;;4992278;28;20073;-74
2021/12/06 06:58:20;;;;;;;23.15;12.25;;;;;;;;;;4989615;28;20042;-75
2021/12/06 07:00:46;;;;;;;25.58;13.82;;;;;;;;;;4991226;28;20034;-75
2021/12/06 07:03:12;;;;;;;24.58;13.13;;;;;;;;;;4990815;28;20480;-76
2021/12/06 07:05:39;;;;;;;26.52;14.27;;;;;;;;;;4989035;28;20042;-76
2021/12/06 07:08:06;;;;;;;26.92;13.70;;;;;;;;;;4982097;28;20035;-81
2021/12/06 07:10:32;;;;;;;23.85;13.07;;;;;;;;;;4991201;28;20038;-75
2021/12/06 07:13:03;;;;;;;23.35;12.35;;;;;;;;;;4990586;28;20030;-76
2021/12/06 07:15:33;;;;;;;24.40;12.95;;;;;;;;;;4983262;28;20035;-76
2021/12/06 07:18:01;;;;;;;26.67;12.73;;;;;;;;;;4984282;28;20034;-77
2021/12/06 07:20:27;;;;;;;24.45;12.85;;;;;;;;;;4991235;28;20050;-77
2021/12/06 07:22:53;;;;;;;21.65;11.57;;;;;;;;;;4988432;28;20023;-76
2021/12/06 07:25:21;;;;;;;43.60;24.48;;;;;;;;;;4979184;28;20404;-77
2021/12/06 07:27:48;;;;;;;21.23;12.70;;;;;;;;;;4991771;28;20034;-76
2021/12/06 07:30:16;;;;;;;19.23;12.18;;;;;;;;;;4978485;28;20037;-77
2021/12/06 07:32:43;;;;;;;23.27;13.43;;;;;;;;;;4989180;28;20038;-76
2021/12/06 07:35:10;;;;;;;25.92;12.50;;;;;;;;;;4985954;28;20404;-77
2021/12/06 07:37:36;;;;;;;25.02;14.00;;;;;;;;;;4991602;28;20049;-76
2021/12/06 07:40:05;;;;;;;25.23;14.07;;;;;;;;;;4991794;28;20053;-76
2021/12/06 07:42:31;;;;;;;24.73;13.23;;;;;;;;;;4974444;28;20038;-76
2021/12/06 07:44:57;;;;;;;22.48;13.60;;;;;;;;;;4987867;28;20486;-76
2021/12/06 07:47:23;;;;;;;20.98;13.27;;;;;;;;;;4978484;28;20042;-76
2021/12/06 07:49:49;;;;;;;23.00;12.90;;;;;;;;;;4981472;28;20045;-75
2021/12/06 07:52:16;;;;;;;22.65;11.77;;;;;;;;;;4986762;28;20042;-76
2021/12/06 07:54:42;;;;;;;22.67;12.05;;;;;;;;;;4975833;28;20042;-78
2021/12/06 07:57:09;;;;;;;22.00;11.32;;;;;;;;;;4977724;28;20563;-76
2021/12/06 07:59:37;;;;;;;23.42;12.80;;;;;;;;;;4983945;28;20034;-75
2021/12/06 08:02:06;;;;;;;21.92;12.50;;;;;;;;;;4988069;28;20485;-76
2021/12/06 08:04:33;;;;;;;21.95;12.63;;;;;;;;;;4979689;28;20520;-76
2021/12/06 08:06:58;;;;;;;23.58;13.40;;;;;;;;;;4991328;28;20049;-74
2021/12/06 08:09:25;;;;;;;22.63;12.98;;;;;;;;;;4973770;28;20038;-75
2021/12/06 08:11:52;;;;;;;20.88;12.90;;;;;;;;;;4975644;28;20062;-75
2021/12/06 08:14:19;;;;;;;24.73;13.75;;;;;;;;;;4986107;28;20030;-75
2021/12/06 08:16:45;;;;;;;21.88;13.10;;;;;;;;;;4991304;28;20050;-75
2021/12/06 08:19:12;;;;;;;19.83;11.93;;;;;;;;;;4991340;28;20468;-75
2021/12/06 08:21:39;;;;;;;24.15;13.65;;;;;;;;;;4991649;28;20042;-76
2021/12/06 08:24:06;;;;;;;22.30;13.38;;;;;;;;;;4991136;28;20038;-75
2021/12/06 08:26:37;;;;;;;27.05;15.55;;;;;;;;;;4983961;28;20509;-75
2021/12/06 08:29:06;;;;;;;21.20;12.73;;;;;;;;;;4977978;28;20058;-75
2021/12/06 08:31:34;;;;;;;21.08;12.32;;;;;;;;;;4970727;28;20042;-75
2021/12/06 08:34:00;;;;;;;19.30;12.30;;;;;;;;;;4988398;28;20038;-75
2021/12/06 08:36:27;;;;;;;20.15;12.55;;;;;;;;;;4988349;28;20034;-75
2021/12/06 08:38:53;;;;;;;23.35;13.45;;;;;;;;;;4986831;28;20419;-75
2021/12/06 08:41:22;;;;;;;21.95;13.55;;;;;;;;;;4988255;28;20030;-75
2021/12/06 08:43:49;;;;;;;23.15;13.50;;;;;;;;;;4976475;28;20389;-76
2021/12/06 08:46:30;;;;;;;18.00;11.95;;;;;;;;;;4982389;28;20053;-75
2021/12/06 08:48:56;;;;;;;23.05;12.70;;;;;;;;;;4985738;28;20408;-76
2021/12/06 08:51:30;;;;;;;20.65;13.10;;;;;;;;;;4983775;28;20042;-77
2021/12/06 08:53:57;;;;;;;21.92;13.00;;;;;;;;;;4985139;28;20480;-76
2021/12/06 08:56:23;;;;;;;21.13;11.82;;;;;;;;;;4990095;28;20053;-75
2021/12/06 08:58:50;;;;;;;21.33;12.63;;;;;;;;;;4990417;28;20052;-75
2021/12/06 09:01:16;;;;;;;20.48;11.88;;;;;;;;;;4990326;28;20047;-75
2021/12/06 09:03:42;;;;;;;22.83;12.32;;;;;;;;;;4990635;28;20058;-74
2021/12/06 09:06:10;;;;;;;20.65;12.25;;;;;;;;;;4991014;28;20121;-75
2021/12/06 09:08:36;;;;;;;22.20;12.98;;;;;;;;;;4990625;28;20045;-75
2021/12/06 09:11:04;;;;;;;20.15;12.20;;;;;;;;;;4991085;28;20374;-76
2021/12/06 09:13:30;;;;;;;19.15;11.93;;;;;;;;;;4990686;28;20038;-76
2021/12/06 09:15:59;;;;;;;17.20;11.07;;;;;;;;;;4990581;28;20043;-74
2021/12/06 09:18:26;;;;;;;17.40;10.23;;;;;;;;;;4976180;28;20042;-75
2021/12/06 09:20:53;;;;;;;16.50;10.73;;;;;;;;;;4989583;28;20524;-73
2021/12/06 09:23:19;;;;;;;16.45;9.93;;;;;;;;;;4987825;28;20512;-73
2021/12/06 09:25:46;;;;;;;19.73;10.65;;;;;;;;;;5004673;28;20050;-74
2021/12/06 09:28:15;;;;;;;16.15;10.20;;;;;;;;;;4992971;28;20050;-73
2021/12/06 09:30:41;;;;;;;16.65;10.45;;;;;;;;;;4993730;28;20201;-74
2021/12/06 09:33:10;;;;;;;15.75;10.93;;;;;;;;;;4989341;28;20472;-74
2021/12/06 09:35:40;;;;;;;17.83;11.30;;;;;;;;;;4992192;28;20484;-73
2021/12/06 09:38:06;;;;;;;15.77;10.50;;;;;;;;;;4993171;28;20054;-75
2021/12/06 09:40:37;;;;;;;16.23;10.77;;;;;;;;;;4991758;28;20057;-79
2021/12/06 09:43:06;;;;;;;16.70;11.02;;;;;;;;;;4991605;28;20045;-78
2021/12/06 09:45:32;;;;;;;17.50;10.98;;;;;;;;;;4991509;28;20460;-78
2021/12/06 09:48:00;;;;;;;14.60;10.38;;;;;;;;;;4987287;28;20042;-77
2021/12/06 09:50:30;;;;;;;14.48;10.02;;;;;;;;;;4992111;28;20057;-74
2021/12/06 09:53:00;;;;;;;13.63;9.00;;;;;;;;;;4991526;28;20499;-79
2021/12/06 09:55:27;;;;;;;13.68;9.00;;;;;;;;;;4990990;28;20022;-79
2021/12/06 09:57:53;;;;;;;13.10;9.73;;;;;;;;;;4993141;28;20046;-74
2021/12/06 10:00:21;;;;;;;12.25;8.25;;;;;;;;;;4993409;28;20038;-75
2021/12/06 10:02:48;;;;;;;13.32;9.57;;;;;;;;;;4992446;28;20649;-74
2021/12/06 10:05:14;;;;;;;13.13;9.32;;;;;;;;;;4989818;28;20137;-75
2021/12/06 10:07:40;;;;;;;14.07;9.50;;;;;;;;;;4991475;28;20042;-76
2021/12/06 10:10:09;;;;;;;13.75;9.27;;;;;;;;;;4992921;28;20046;-77
2021/12/06 10:12:35;;;;;;;16.17;10.20;;;;;;;;;;4991552;28;20484;-75
2021/12/06 10:15:04;;;;;;;17.60;10.23;;;;;;;;;;4991617;28;20042;-76
2021/12/06 10:17:32;;;;;;;12.35;8.82;;;;;;;;;;4992414;28;20038;-76
2021/12/06 10:19:58;;;;;;;13.85;8.82;;;;;;;;;;4993142;28;20046;-81
2021/12/06 10:22:26;;;;;;;15.13;9.48;;;;;;;;;;4992979;28;20042;-77
2021/12/06 10:24:59;;;;;;;14.30;9.10;;;;;;;;;;4992230;28;20053;-78
2021/12/06 10:27:26;;;;;;;14.57;10.05;;;;;;;;;;4993459;28;20397;-75
2021/12/06 10:30:00;;;;;;;14.73;10.00;;;;;;;;;;4985115;28;20030;-77
2021/12/06 10:32:32;;;;;;;14.35;9.45;;;;;;;;;;5007658;28;20484;-77
2021/12/06 10:35:07;;;;;;;14.25;9.40;;;;;;;;;;4991505;28;20065;-76
2021/12/06 10:37:42;;;;;;;16.38;10.90;;;;;;;;;;4990273;28;20057;-75
2021/12/06 10:40:10;;;;;;;15.18;9.95;;;;;;;;;;4991753;28;20027;-76
2021/12/06 10:42:41;;;;;;;15.75;10.30;;;;;;;;;;4987940;28;20030;-75
2021/12/06 10:45:09;;;;;;;14.63;9.98;;;;;;;;;;4981313;28;20030;-76
2021/12/06 10:47:35;;;;;;;14.73;9.63;;;;;;;;;;4992335;28;20046;-76
2021/12/06 10:50:14;;;;;;;16.63;9.95;;;;;;;;;;4992333;28;20045;-75
2021/12/06 10:52:52;;;;;;;14.38;9.50;;;;;;;;;;4993111;28;20031;-76
2021/12/06 10:55:20;;;;;;;14.75;9.43;;;;;;;;;;4993295;28;20053;-75
2021/12/06 10:57:52;;;;;;;26.98;16.33;;;;;;;;;;4979428;28;20047;-76
2021/12/06 11:00:34;;;;;;;20.00;12.98;;;;;;;;;;4989223;28;20034;-74
2021/12/06 11:03:01;;;;;;;17.20;10.30;;;;;;;;;;4988825;28;20078;-74
2021/12/06 11:05:30;;;;;;;14.75;9.57;;;;;;;;;;4991044;28;20038;-75
2021/12/06 11:08:17;;;;;;;15.98;9.90;;;;;;;;;;4992036;28;20030;-74
2021/12/06 11:10:49;;;;;;;13.90;9.82;;;;;;;;;;4992577;28;20049;-74
2021/12/06 11:13:24;;;;;;;12.48;8.25;;;;;;;;;;4991080;28;20038;-75
2021/12/06 11:16:07;;;;;;;15.60;8.68;;;;;;;;;;4992193;28;20048;-74
2021/12/06 11:18:34;;;;;;;16.25;9.82;;;;;;;;;;4992687;28;20030;-75
2021/12/06 11:21:01;;;;;;;16.40;9.60;;;;;;;;;;4992374;28;20030;-74
2021/12/06 11:23:27;;;;;;;16.38;10.45;;;;;;;;;;4990948;28;20054;-74
2021/12/06 11:25:58;;;;;;;15.23;10.15;;;;;;;;;;4992275;28;20046;-74
2021/12/06 11:28:30;;;;;;;16.13;10.48;;;;;;;;;;4992042;28;20046;-73
2021/12/06 11:31:04;;;;;;;15.90;9.88;;;;;;;;;;4991953;28;20346;-74
2021/12/06 11:33:34;;;;;;;18.98;10.10;;;;;;;;;;4992383;28;20047;-74
2021/12/06 11:36:17;;;;;;;19.25;10.27;;;;;;;;;;4992078;28;20496;-73
2021/12/06 11:38:47;;;;;;;42.30;22.92;;;;;;;;;;4991816;28;20046;-73
2021/12/06 11:41:14;;;;;;;17.90;11.75;;;;;;;;;;4992181;28;20432;-73
2021/12/06 11:43:39;;;;;;;18.95;11.65;;;;;;;;;;4991867;28;20042;-73
2021/12/06 11:46:08;;;;;;;18.27;10.93;;;;;;;;;;4992145;28;20038;-72
2021/12/06 11:48:38;;;;;;;15.93;10.52;;;;;;;;;;4991251;28;20030;-73
2021/12/06 11:51:14;;;;;;;20.65;11.45;;;;;;;;;;4991575;28;20043;-73
2021/12/06 11:53:48;;;;;;;18.05;10.60;;;;;;;;;;4991512;28;20046;-73
2021/12/06 11:56:42;;;;;;;17.00;10.40;;;;;;;;;;4991497;28;20030;-73
2021/12/06 11:59:09;;;;;;;17.08;10.30;;;;;;;;;;4991977;28;20044;-73
2021/12/06 12:01:38;;;;;;;16.58;10.32;;;;;;;;;;4991686;28;20046;-73
2021/12/06 12:04:14;;;;;;;15.70;10.00;;;;;;;;;;4991145;28;20034;-73
2021/12/06 12:06:43;;;;;;;14.90;9.35;;;;;;;;;;4990245;28;20039;-74
2021/12/06 12:09:19;;;;;;;14.48;10.13;;;;;;;;;;4991778;28;20046;-74
2021/12/06 12:12:05;;;;;;;17.98;10.98;;;;;;;;;;4991478;28;20050;-74
2021/12/06 12:14:38;;;;;;;16.52;10.50;;;;;;;;;;4990216;28;20034;-74
2021/12/06 12:17:08;;;;;;;16.85;10.63;;;;;;;;;;4990330;28;20038;-74
2021/12/06 12:19:35;;;;;;;16.45;10.27;;;;;;;;;;4991502;28;20496;-74
2021/12/06 12:22:02;;;;;;;14.32;8.63;;;;;;;;;;4991315;28;20030;-74
2021/12/06 12:24:29;;;;;;;15.00;9.65;;;;;;;;;;4991138;28;20046;-74
2021/12/06 12:27:36;;;;;;;15.45;8.32;;;;;;;;;;4990572;28;20046;-75
2021/12/06 12:29:50;;;;;;;14.07;9.02;;;;;;;;;;4972011;28;20057;-74
2021/12/06 12:32:17;;;;;;;18.95;12.23;;;;;;;;;;4983183;28;20515;-74
2021/12/06 12:34:48;;;;;;;20.55;10.43;;;;;;;;;;4988834;28;20388;-74
2021/12/06 12:37:17;;;;;;;15.55;10.00;;;;;;;;;;4972614;28;20047;-74
2021/12/06 12:39:57;;;;;;;13.80;8.93;;;;;;;;;;4977351;28;20046;-74
2021/12/06 12:42:23;;;;;;;14.30;9.00;;;;;;;;;;4991521;28;20042;-74
2021/12/06 12:44:52;;;;;;;14.70;8.30;;;;;;;;;;4981432;28;20407;-74
2021/12/06 12:47:22;;;;;;;16.55;9.65;;;;;;;;;;4987559;28;20054;-74
2021/12/06 12:49:51;;;;;;;14.63;9.25;;;;;;;;;;4990838;28;20057;-74
2021/12/06 12:52:36;;;;;;;12.85;8.43;;;;;;;;;;4989538;28;20049;-75
2021/12/06 12:55:18;;;;;;;14.35;7.95;;;;;;;;;;4990960;28;20396;-77
2021/12/06 12:57:44;;;;;;;14.93;7.60;;;;;;;;;;4991212;28;20472;-76
2021/12/06 13:00:21;;;;;;;14.10;8.00;;;;;;;;;;4986370;28;20070;-76
2021/12/06 13:02:47;;;;;;;11.60;6.90;;;;;;;;;;4986629;28;20057;-75
2021/12/06 13:05:18;;;;;;;12.70;7.43;;;;;;;;;;4986139;28;20038;-75
2021/12/06 13:07:44;;;;;;;12.07;7.40;;;;;;;;;;4994536;28;20427;-75
2021/12/06 13:10:31;;;;;;;12.95;6.78;;;;;;;;;;4986851;28;20042;-75
2021/12/06 13:13:19;;;;;;;13.23;8.07;;;;;;;;;;4989125;28;20057;-75
2021/12/06 13:16:06;;;;;;;16.52;10.45;;;;;;;;;;4978243;28;20496;-75
2021/12/06 13:18:58;;;;;;;18.08;11.18;;;;;;;;;;4994677;28;20580;-74
2021/12/06 13:21:45;;;;;;;18.00;11.73;;;;;;;;;;4985088;28;20046;-75
2021/12/06 13:24:10;;;;;;;20.48;12.70;;;;;;;;;;4990583;28;20046;-75
2021/12/06 13:26:42;;;;;;;19.20;12.10;;;;;;;;;;4982787;28;20365;-75
2021/12/06 13:29:09;;;;;;;;;;;;;;;;;;4993865;28;20046;-75
2021/12/06 13:31:38;;;;;;;17.83;10.23;;;;;;;;;;4993628;28;19918;-75
2021/12/06 13:34:17;;;;;;;17.42;9.73;;;;;;;;;;4994481;28;20423;-75
2021/12/06 13:36:52;;;;;;;15.85;9.77;;;;;;;;;;4975777;28;20038;-75
2021/12/06 13:39:44;;;;;;;16.05;9.77;;;;;;;;;;4983652;28;20049;-75
2021/12/06 13:42:34;;;;;;;15.43;9.05;;;;;;;;;;4993299;28;20054;-74
2021/12/06 13:45:01;;;;;;;19.38;10.13;;;;;;;;;;4981019;28;20476;-74
2021/12/06 13:47:28;;;;;;;19.45;10.85;;;;;;;;;;4993927;28;20385;-74
2021/12/06 13:50:08;;;;;;;18.42;10.95;;;;;;;;;;4980252;28;20038;-74
2021/12/06 13:52:51;;;;;;;17.98;10.32;;;;;;;;;;4993543;28;20050;-74
2021/12/06 13:55:27;;;;;;;16.20;9.93;;;;;;;;;;4993485;28;20050;-74
2021/12/06 13:57:59;;;;;;;16.80;10.30;;;;;;;;;;4993619;28;20486;-74
2021/12/06 14:00:29;;;;;;;18.48;9.38;;;;;;;;;;4991838;28;20046;-74
2021/12/06 14:03:01;;;;;;;17.45;9.80;;;;;;;;;;4981960;28;20026;-74
2021/12/06 14:05:29;;;;;;;17.08;9.85;;;;;;;;;;4992567;28;20046;-74
2021/12/06 14:07:55;;;;;;;18.77;10.52;;;;;;;;;;4993146;28;20034;-74
2021/12/06 14:10:22;;;;;;;50.17;25.75;;;;;;;;;;4993453;28;20037;-74
2021/12/06 14:12:48;;;;;;;17.40;9.93;;;;;;;;;;4992027;28;20039;-74
2021/12/06 14:15:21;;;;;;;18.33;10.20;;;;;;;;;;4992243;28;20038;-74
2021/12/06 14:17:50;;;;;;;15.68;9.20;;;;;;;;;;4991280;28;20480;-74
2021/12/06 14:20:16;;;;;;;15.25;8.48;;;;;;;;;;4992306;28;20060;-74
2021/12/06 14:22:44;;;;;;;14.27;8.68;;;;;;;;;;4991775;28;20488;-74
2021/12/06 14:25:13;;;;;;;13.85;8.40;;;;;;;;;;4992341;28;20046;-74
2021/12/06 14:27:40;;;;;;;13.25;8.18;;;;;;;;;;4987270;28;20057;-74
2021/12/06 14:30:11;;;;;;;14.55;8.73;;;;;;;;;;4992754;28;20045;-74
2021/12/06 14:32:37;;;;;;;;;;;;;;;;;;4993060;28;20397;-74
2021/12/06 14:35:03;;;;;;;14.18;8.23;;;;;;;;;;4993164;28;19916;-74
2021/12/06 14:37:30;;;;;;;12.77;7.22;;;;;;;;;;4989680;28;20057;-74
2021/12/06 14:39:58;;;;;;;17.30;8.32;;;;;;;;;;4989938;28;20049;-75
2021/12/06 14:42:26;;;;;;;13.73;8.07;;;;;;;;;;4993672;28;20038;-74
2021/12/06 14:44:57;;;;;;;13.32;7.72;;;;;;;;;;4982318;28;20043;-74
2021/12/06 14:47:43;;;;;;;16.33;7.50;;;;;;;;;;4988187;28;20041;-74